sensor_id;sensor_type;location;lat;lon;timestamp;P1;P2;P0
49914;PMS5003;35806;47.958;13.158;2023-02-12T00:01:06;50;48;
49914;PMS5003;35806;47.958;13.158;2023-02-12T00:03:35;46;40;
49914;PMS5003;35806;47.958;13.158;2023-02-12T00:06:03;58;49;
49914;PMS5003;35806;47.958;13.158;2023-02-12T00:08:31;46;39;
49914;PMS5003;35806;47.958;13.158;2023-02-12T00:10:58;61;48;
49914;PMS5003;35806;47.958;13.158;2023-02-12T00:13:28;56;48;
49914;PMS5003;35806;47.958;13.158;2023-02-12T00:15:57;53;42;
49914;PMS5003;35806;47.958;13.158;2023-02-12T00:18:24;44;41;
49914;PMS5003;35806;47.958;13.158;2023-02-12T00:20:58;57;48;
49914;PMS5003;35806;47.958;13.158;2023-02-12T00:23:26;38;37;
49914;PMS5003;35806;47.958;13.158;2023-02-12T00:25:54;55;52;
49914;PMS5003;35806;47.958;13.158;2023-02-12T00:28:21;57;46;
49914;PMS5003;35806;47.958;13.158;2023-02-12T00:30:48;55;48;
49914;PMS5003;35806;47.958;13.158;2023-02-12T00:33:16;50;45;
49914;PMS5003;35806;47.958;13.158;2023-02-12T00:35:43;52;47;
49914;PMS5003;35806;47.958;13.158;2023-02-12T00:38:11;47;42;
49914;PMS5003;35806;47.958;13.158;2023-02-12T00:40:43;48;47;
49914;PMS5003;35806;47.958;13.158;2023-02-12T00:43:10;49;42;
49914;PMS5003;35806;47.958;13.158;2023-02-12T00:45:37;44;41;
49914;PMS5003;35806;47.958;13.158;2023-02-12T00:48:04;42;38;
49914;PMS5003;35806;47.958;13.158;2023-02-12T00:50:31;57;51;
49914;PMS5003;35806;47.958;13.158;2023-02-12T00:52:58;56;46;
49914;PMS5003;35806;47.958;13.158;2023-02-12T00:55:25;51;45;
49914;PMS5003;35806;47.958;13.158;2023-02-12T00:57:53;51;47;
49914;PMS5003;35806;47.958;13.158;2023-02-12T01:00:20;50;48;
49914;PMS5003;35806;47.958;13.158;2023-02-12T01:02:47;56;49;
49914;PMS5003;35806;47.958;13.158;2023-02-12T01:05:15;52;49;
49914;PMS5003;35806;47.958;13.158;2023-02-12T01:07:42;59;49;
49914;PMS5003;35806;47.958;13.158;2023-02-12T01:10:09;61;53;
49914;PMS5003;35806;47.958;13.158;2023-02-12T01:12:36;48;42;
49914;PMS5003;35806;47.958;13.158;2023-02-12T01:15:03;62;53;
49914;PMS5003;35806;47.958;13.158;2023-02-12T01:17:31;69;53;
49914;PMS5003;35806;47.958;13.158;2023-02-12T01:19:58;59;54;
49914;PMS5003;35806;47.958;13.158;2023-02-12T01:22:26;55;47;
49914;PMS5003;35806;47.958;13.158;2023-02-12T01:24:54;50;47;
49914;PMS5003;35806;47.958;13.158;2023-02-12T01:27:21;58;46;
49914;PMS5003;35806;47.958;13.158;2023-02-12T01:29:48;59;47;
49914;PMS5003;35806;47.958;13.158;2023-02-12T01:32:15;53;45;
49914;PMS5003;35806;47.958;13.158;2023-02-12T01:34:43;57;52;
49914;PMS5003;35806;47.958;13.158;2023-02-12T01:37:10;54;49;
49914;PMS5003;35806;47.958;13.158;2023-02-12T01:39:47;60;51;
49914;PMS5003;35806;47.958;13.158;2023-02-12T01:42:14;61;56;
49914;PMS5003;35806;47.958;13.158;2023-02-12T01:48:12;53;47;
49914;PMS5003;35806;47.958;13.158;2023-02-12T01:50:47;62;55;
49914;PMS5003;35806;47.958;13.158;2023-02-12T01:53:15;56;51;
49914;PMS5003;35806;47.958;13.158;2023-02-12T01:55:47;56;51;
49914;PMS5003;35806;47.958;13.158;2023-02-12T01:58:16;55;48;
49914;PMS5003;35806;47.958;13.158;2023-02-12T02:15:44;60;49;
49914;PMS5003;35806;47.958;13.158;2023-02-12T02:18:16;57;49;
49914;PMS5003;35806;47.958;13.158;2023-02-12T02:21:04;57;49;
49914;PMS5003;35806;47.958;13.158;2023-02-12T02:23:48;58;55;
49914;PMS5003;35806;47.958;13.158;2023-02-12T02:26:32;57;52;
49914;PMS5003;35806;47.958;13.158;2023-02-12T02:29:39;56;51;
49914;PMS5003;35806;47.958;13.158;2023-02-12T02:32:16;59;52;
49914;PMS5003;35806;47.958;13.158;2023-02-12T02:34:47;64;51;
49914;PMS5003;35806;47.958;13.158;2023-02-12T02:37:28;52;49;
49914;PMS5003;35806;47.958;13.158;2023-02-12T02:39:58;52;47;
49914;PMS5003;35806;47.958;13.158;2023-02-12T02:42:34;63;57;
49914;PMS5003;35806;47.958;13.158;2023-02-12T02:45:07;57;48;
49914;PMS5003;35806;47.958;13.158;2023-02-12T02:47:40;54;48;
49914;PMS5003;35806;47.958;13.158;2023-02-12T02:50:12;61;56;
49914;PMS5003;35806;47.958;13.158;2023-02-12T02:52:44;64;55;
49914;PMS5003;35806;47.958;13.158;2023-02-12T02:55:16;58;51;
49914;PMS5003;35806;47.958;13.158;2023-02-12T02:57:47;59;50;
49914;PMS5003;35806;47.958;13.158;2023-02-12T03:00:19;58;47;
49914;PMS5003;35806;47.958;13.158;2023-02-12T03:02:55;63;55;
49914;PMS5003;35806;47.958;13.158;2023-02-12T03:05:28;60;52;
49914;PMS5003;35806;47.958;13.158;2023-02-12T03:07:59;66;54;
49914;PMS5003;35806;47.958;13.158;2023-02-12T03:10:32;69;64;
49914;PMS5003;35806;47.958;13.158;2023-02-12T03:13:02;68;64;
49914;PMS5003;35806;47.958;13.158;2023-02-12T03:15:36;75;66;
49914;PMS5003;35806;47.958;13.158;2023-02-12T03:18:08;73;64;
49914;PMS5003;35806;47.958;13.158;2023-02-12T03:20:41;59;51;
49914;PMS5003;35806;47.958;13.158;2023-02-12T03:23:14;72;63;
49914;PMS5003;35806;47.958;13.158;2023-02-12T03:25:48;84;68;
49914;PMS5003;35806;47.958;13.158;2023-02-12T03:28:21;65;60;
49914;PMS5003;35806;47.958;13.158;2023-02-12T03:30:55;70;58;
49914;PMS5003;35806;47.958;13.158;2023-02-12T03:33:28;77;66;
49914;PMS5003;35806;47.958;13.158;2023-02-12T03:36:02;63;56;
49914;PMS5003;35806;47.958;13.158;2023-02-12T03:38:37;67;56;
49914;PMS5003;35806;47.958;13.158;2023-02-12T03:41:10;71;59;
49914;PMS5003;35806;47.958;13.158;2023-02-12T03:43:46;64;54;
49914;PMS5003;35806;47.958;13.158;2023-02-12T03:46:18;57;54;
49914;PMS5003;35806;47.958;13.158;2023-02-12T03:48:54;63;56;
49914;PMS5003;35806;47.958;13.158;2023-02-12T03:51:27;49;49;
49914;PMS5003;35806;47.958;13.158;2023-02-12T03:53:59;58;55;
49914;PMS5003;35806;47.958;13.158;2023-02-12T03:56:27;54;48;
49914;PMS5003;35806;47.958;13.158;2023-02-12T03:59:00;57;51;
49914;PMS5003;35806;47.958;13.158;2023-02-12T04:01:30;56;49;
49914;PMS5003;35806;47.958;13.158;2023-02-12T04:04:00;55;46;
49914;PMS5003;35806;47.958;13.158;2023-02-12T04:06:32;57;47;
49914;PMS5003;35806;47.958;13.158;2023-02-12T04:09:00;49;45;
49914;PMS5003;35806;47.958;13.158;2023-02-12T04:11:33;53;49;
49914;PMS5003;35806;47.958;13.158;2023-02-12T04:14:16;59;52;
49914;PMS5003;35806;47.958;13.158;2023-02-12T04:16:50;66;54;
49914;PMS5003;35806;47.958;13.158;2023-02-12T04:19:29;57;52;
49914;PMS5003;35806;47.958;13.158;2023-02-12T04:22:10;53;51;
49914;PMS5003;35806;47.958;13.158;2023-02-12T04:24:49;57;49;
49914;PMS5003;35806;47.958;13.158;2023-02-12T04:27:28;54;50;
49914;PMS5003;35806;47.958;13.158;2023-02-12T04:30:04;53;46;
49914;PMS5003;35806;47.958;13.158;2023-02-12T04:32:38;55;49;
49914;PMS5003;35806;47.958;13.158;2023-02-12T04:35:12;60;45;
49914;PMS5003;35806;47.958;13.158;2023-02-12T04:37:47;53;48;
49914;PMS5003;35806;47.958;13.158;2023-02-12T04:40:19;53;48;
49914;PMS5003;35806;47.958;13.158;2023-02-12T04:42:50;54;51;
49914;PMS5003;35806;47.958;13.158;2023-02-12T04:45:20;54;49;
49914;PMS5003;35806;47.958;13.158;2023-02-12T04:47:50;58;51;
49914;PMS5003;35806;47.958;13.158;2023-02-12T04:50:18;57;53;
49914;PMS5003;35806;47.958;13.158;2023-02-12T04:52:45;63;56;
49914;PMS5003;35806;47.958;13.158;2023-02-12T04:55:13;52;46;
49914;PMS5003;35806;47.958;13.158;2023-02-12T04:57:41;63;56;
49914;PMS5003;35806;47.958;13.158;2023-02-12T05:00:10;66;56;
49914;PMS5003;35806;47.958;13.158;2023-02-12T05:02:39;59;50;
49914;PMS5003;35806;47.958;13.158;2023-02-12T05:05:07;62;49;
49914;PMS5003;35806;47.958;13.158;2023-02-12T05:07:35;56;45;
49914;PMS5003;35806;47.958;13.158;2023-02-12T05:10:03;46;44;
49914;PMS5003;35806;47.958;13.158;2023-02-12T05:12:31;49;47;
49914;PMS5003;35806;47.958;13.158;2023-02-12T05:14:58;54;42;
49914;PMS5003;35806;47.958;13.158;2023-02-12T05:17:26;54;53;
49914;PMS5003;35806;47.958;13.158;2023-02-12T05:19:53;59;50;
49914;PMS5003;35806;47.958;13.158;2023-02-12T05:22:19;55;51;
49914;PMS5003;35806;47.958;13.158;2023-02-12T05:24:46;57;55;
49914;PMS5003;35806;47.958;13.158;2023-02-12T05:27:13;62;53;
49914;PMS5003;35806;47.958;13.158;2023-02-12T05:29:41;56;45;
49914;PMS5003;35806;47.958;13.158;2023-02-12T05:32:08;61;55;
49914;PMS5003;35806;47.958;13.158;2023-02-12T05:34:35;68;56;
49914;PMS5003;35806;47.958;13.158;2023-02-12T05:37:03;69;56;
49914;PMS5003;35806;47.958;13.158;2023-02-12T05:39:30;54;47;
49914;PMS5003;35806;47.958;13.158;2023-02-12T05:41:57;65;58;
49914;PMS5003;35806;47.958;13.158;2023-02-12T05:44:23;64;53;
49914;PMS5003;35806;47.958;13.158;2023-02-12T05:46:56;54;48;
49914;PMS5003;35806;47.958;13.158;2023-02-12T05:49:23;70;54;
49914;PMS5003;35806;47.958;13.158;2023-02-12T05:51:51;52;47;
49914;PMS5003;35806;47.958;13.158;2023-02-12T05:54:18;58;48;
49914;PMS5003;35806;47.958;13.158;2023-02-12T05:56:46;57;54;
49914;PMS5003;35806;47.958;13.158;2023-02-12T05:59:15;61;57;
49914;PMS5003;35806;47.958;13.158;2023-02-12T06:01:44;61;44;
49914;PMS5003;35806;47.958;13.158;2023-02-12T06:04:14;59;53;
49914;PMS5003;35806;47.958;13.158;2023-02-12T06:06:42;69;56;
49914;PMS5003;35806;47.958;13.158;2023-02-12T06:09:10;56;53;
49914;PMS5003;35806;47.958;13.158;2023-02-12T06:11:38;63;57;
49914;PMS5003;35806;47.958;13.158;2023-02-12T06:14:07;62;58;
49914;PMS5003;35806;47.958;13.158;2023-02-12T06:16:36;59;50;
49914;PMS5003;35806;47.958;13.158;2023-02-12T06:19:04;63;54;
49914;PMS5003;35806;47.958;13.158;2023-02-12T06:21:32;58;50;
49914;PMS5003;35806;47.958;13.158;2023-02-12T06:24:00;55;48;
49914;PMS5003;35806;47.958;13.158;2023-02-12T06:26:28;61;50;
49914;PMS5003;35806;47.958;13.158;2023-02-12T06:28:54;61;57;
49914;PMS5003;35806;47.958;13.158;2023-02-12T06:31:23;61;49;
49914;PMS5003;35806;47.958;13.158;2023-02-12T06:33:53;52;51;
49914;PMS5003;35806;47.958;13.158;2023-02-12T06:36:22;53;50;
49914;PMS5003;35806;47.958;13.158;2023-02-12T06:38:50;66;59;
49914;PMS5003;35806;47.958;13.158;2023-02-12T06:41:18;60;48;
49914;PMS5003;35806;47.958;13.158;2023-02-12T06:43:45;55;50;
49914;PMS5003;35806;47.958;13.158;2023-02-12T06:46:13;63;52;
49914;PMS5003;35806;47.958;13.158;2023-02-12T06:48:40;68;55;
49914;PMS5003;35806;47.958;13.158;2023-02-12T06:51:09;58;53;
49914;PMS5003;35806;47.958;13.158;2023-02-12T06:53:38;57;52;
49914;PMS5003;35806;47.958;13.158;2023-02-12T06:56:07;60;51;
49914;PMS5003;35806;47.958;13.158;2023-02-12T06:58:36;66;58;
49914;PMS5003;35806;47.958;13.158;2023-02-12T07:01:07;61;49;
49914;PMS5003;35806;47.958;13.158;2023-02-12T07:03:35;72;61;
49914;PMS5003;35806;47.958;13.158;2023-02-12T07:06:02;58;55;
49914;PMS5003;35806;47.958;13.158;2023-02-12T07:08:30;64;59;
49914;PMS5003;35806;47.958;13.158;2023-02-12T07:10:57;61;56;
49914;PMS5003;35806;47.958;13.158;2023-02-12T07:13:24;77;68;
49914;PMS5003;35806;47.958;13.158;2023-02-12T07:15:51;69;60;
49914;PMS5003;35806;47.958;13.158;2023-02-12T07:18:19;61;55;
49914;PMS5003;35806;47.958;13.158;2023-02-12T07:20:46;66;58;
49914;PMS5003;35806;47.958;13.158;2023-02-12T07:23:14;70;58;
49914;PMS5003;35806;47.958;13.158;2023-02-12T07:25:41;60;52;
49914;PMS5003;35806;47.958;13.158;2023-02-12T07:28:08;60;54;
49914;PMS5003;35806;47.958;13.158;2023-02-12T07:30:36;61;54;
49914;PMS5003;35806;47.958;13.158;2023-02-12T07:33:03;47;46;
49914;PMS5003;35806;47.958;13.158;2023-02-12T07:35:30;54;46;
49914;PMS5003;35806;47.958;13.158;2023-02-12T07:37:58;59;51;
49914;PMS5003;35806;47.958;13.158;2023-02-12T07:40:26;55;46;
49914;PMS5003;35806;47.958;13.158;2023-02-12T07:42:54;40;37;
49914;PMS5003;35806;47.958;13.158;2023-02-12T07:45:21;42;38;
49914;PMS5003;35806;47.958;13.158;2023-02-12T07:47:48;53;46;
49914;PMS5003;35806;47.958;13.158;2023-02-12T07:50:16;44;37;
49914;PMS5003;35806;47.958;13.158;2023-02-12T07:52:44;47;43;
49914;PMS5003;35806;47.958;13.158;2023-02-12T07:55:14;55;50;
49914;PMS5003;35806;47.958;13.158;2023-02-12T07:57:41;47;43;
49914;PMS5003;35806;47.958;13.158;2023-02-12T08:00:09;50;41;
49914;PMS5003;35806;47.958;13.158;2023-02-12T08:02:37;48;44;
49914;PMS5003;35806;47.958;13.158;2023-02-12T08:05:04;51;46;
49914;PMS5003;35806;47.958;13.158;2023-02-12T08:07:32;51;43;
49914;PMS5003;35806;47.958;13.158;2023-02-12T08:09:59;54;47;
49914;PMS5003;35806;47.958;13.158;2023-02-12T08:12:27;42;35;
49914;PMS5003;35806;47.958;13.158;2023-02-12T08:14:54;43;41;
49914;PMS5003;35806;47.958;13.158;2023-02-12T08:17:21;53;46;
49914;PMS5003;35806;47.958;13.158;2023-02-12T08:19:48;50;43;
49914;PMS5003;35806;47.958;13.158;2023-02-12T08:22:16;61;50;
49914;PMS5003;35806;47.958;13.158;2023-02-12T08:24:42;49;43;
49914;PMS5003;35806;47.958;13.158;2023-02-12T08:27:10;51;44;
49914;PMS5003;35806;47.958;13.158;2023-02-12T08:29:37;55;41;
49914;PMS5003;35806;47.958;13.158;2023-02-12T08:32:04;62;52;
49914;PMS5003;35806;47.958;13.158;2023-02-12T08:34:32;46;42;
49914;PMS5003;35806;47.958;13.158;2023-02-12T08:37:00;50;43;
49914;PMS5003;35806;47.958;13.158;2023-02-12T08:39:30;52;45;
49914;PMS5003;35806;47.958;13.158;2023-02-12T08:41:58;45;44;
49914;PMS5003;35806;47.958;13.158;2023-02-12T08:44:26;56;49;
49914;PMS5003;35806;47.958;13.158;2023-02-12T08:46:54;46;45;
49914;PMS5003;35806;47.958;13.158;2023-02-12T08:49:21;54;49;
49914;PMS5003;35806;47.958;13.158;2023-02-12T08:51:51;51;45;
49914;PMS5003;35806;47.958;13.158;2023-02-12T08:54:21;55;43;
49914;PMS5003;35806;47.958;13.158;2023-02-12T08:56:49;58;47;
49914;PMS5003;35806;47.958;13.158;2023-02-12T08:59:19;52;44;
49914;PMS5003;35806;47.958;13.158;2023-02-12T09:01:48;48;42;
49914;PMS5003;35806;47.958;13.158;2023-02-12T09:04:16;42;38;
49914;PMS5003;35806;47.958;13.158;2023-02-12T09:06:45;47;39;
49914;PMS5003;35806;47.958;13.158;2023-02-12T09:09:13;41;37;
49914;PMS5003;35806;47.958;13.158;2023-02-12T09:11:40;46;41;
49914;PMS5003;35806;47.958;13.158;2023-02-12T09:14:10;35;30;
49914;PMS5003;35806;47.958;13.158;2023-02-12T09:16:39;50;40;
49914;PMS5003;35806;47.958;13.158;2023-02-12T09:19:07;38;31;
49914;PMS5003;35806;47.958;13.158;2023-02-12T09:21:37;42;38;
49914;PMS5003;35806;47.958;13.158;2023-02-12T09:24:04;43;36;
49914;PMS5003;35806;47.958;13.158;2023-02-12T09:26:32;40;35;
49914;PMS5003;35806;47.958;13.158;2023-02-12T09:29:02;44;38;
49914;PMS5003;35806;47.958;13.158;2023-02-12T09:31:31;41;37;
49914;PMS5003;35806;47.958;13.158;2023-02-12T09:33:59;41;36;
49914;PMS5003;35806;47.958;13.158;2023-02-12T09:36:28;39;38;
49914;PMS5003;35806;47.958;13.158;2023-02-12T09:38:56;42;39;
49914;PMS5003;35806;47.958;13.158;2023-02-12T09:42:25;49;46;
49914;PMS5003;35806;47.958;13.158;2023-02-12T09:45:05;52;45;
49914;PMS5003;35806;47.958;13.158;2023-02-12T09:47:40;55;52;
49914;PMS5003;35806;47.958;13.158;2023-02-12T09:50:20;49;43;
49914;PMS5003;35806;47.958;13.158;2023-02-12T09:52:59;31;28;
49914;PMS5003;35806;47.958;13.158;2023-02-12T09:55:28;52;46;
49914;PMS5003;35806;47.958;13.158;2023-02-12T09:57:57;47;40;
49914;PMS5003;35806;47.958;13.158;2023-02-12T10:00:27;44;42;
49914;PMS5003;35806;47.958;13.158;2023-02-12T10:02:57;44;40;
49914;PMS5003;35806;47.958;13.158;2023-02-12T10:05:28;44;36;
49914;PMS5003;35806;47.958;13.158;2023-02-12T10:08:03;40;33;
49914;PMS5003;35806;47.958;13.158;2023-02-12T10:10:43;34;33;
49914;PMS5003;35806;47.958;13.158;2023-02-12T10:13:20;36;31;
49914;PMS5003;35806;47.958;13.158;2023-02-12T10:15:58;50;36;
49914;PMS5003;35806;47.958;13.158;2023-02-12T10:18:36;36;33;
49914;PMS5003;35806;47.958;13.158;2023-02-12T10:21:15;41;31;
49914;PMS5003;35806;47.958;13.158;2023-02-12T10:24:24;37;29;
49914;PMS5003;35806;47.958;13.158;2023-02-12T10:24:48;37;29;
49914;PMS5003;35806;47.958;13.158;2023-02-12T10:27:35;46;38;
49914;PMS5003;35806;47.958;13.158;2023-02-12T10:30:13;53;44;
49914;PMS5003;35806;47.958;13.158;2023-02-12T10:32:47;56;55;
49914;PMS5003;35806;47.958;13.158;2023-02-12T10:35:18;48;46;
49914;PMS5003;35806;47.958;13.158;2023-02-12T10:37:54;66;55;
49914;PMS5003;35806;47.958;13.158;2023-02-12T10:40:26;53;44;
49914;PMS5003;35806;47.958;13.158;2023-02-12T10:42:56;52;45;
49914;PMS5003;35806;47.958;13.158;2023-02-12T10:45:25;53;48;
49914;PMS5003;35806;47.958;13.158;2023-02-12T10:48:05;45;37;
49914;PMS5003;35806;47.958;13.158;2023-02-12T10:50:40;43;41;
49914;PMS5003;35806;47.958;13.158;2023-02-12T10:53:17;45;41;
49914;PMS5003;35806;47.958;13.158;2023-02-12T10:55:48;44;40;
49914;PMS5003;35806;47.958;13.158;2023-02-12T10:58:17;43;38;
49914;PMS5003;35806;47.958;13.158;2023-02-12T11:00:46;41;35;
49914;PMS5003;35806;47.958;13.158;2023-02-12T11:03:26;42;37;
49914;PMS5003;35806;47.958;13.158;2023-02-12T11:05:55;47;42;
49914;PMS5003;35806;47.958;13.158;2023-02-12T11:08:36;35;31;
49914;PMS5003;35806;47.958;13.158;2023-02-12T11:11:06;36;33;
49914;PMS5003;35806;47.958;13.158;2023-02-12T11:13:38;38;35;
49914;PMS5003;35806;47.958;13.158;2023-02-12T11:16:08;32;28;
49914;PMS5003;35806;47.958;13.158;2023-02-12T11:18:36;33;26;
49914;PMS5003;35806;47.958;13.158;2023-02-12T11:18:58;33;26;
49914;PMS5003;35806;47.958;13.158;2023-02-12T11:21:27;41;35;
49914;PMS5003;35806;47.958;13.158;2023-02-12T11:23:54;37;32;
49914;PMS5003;35806;47.958;13.158;2023-02-12T11:26:23;36;33;
49914;PMS5003;35806;47.958;13.158;2023-02-12T11:28:53;38;31;
49914;PMS5003;35806;47.958;13.158;2023-02-12T11:31:23;35;28;
49914;PMS5003;35806;47.958;13.158;2023-02-12T11:34:13;37;34;
49914;PMS5003;35806;47.958;13.158;2023-02-12T11:36:43;32;29;
49914;PMS5003;35806;47.958;13.158;2023-02-12T11:39:16;34;31;
49914;PMS5003;35806;47.958;13.158;2023-02-12T11:41:49;42;35;
49914;PMS5003;35806;47.958;13.158;2023-02-12T11:44:20;33;31;
49914;PMS5003;35806;47.958;13.158;2023-02-12T11:46:53;27;23;
49914;PMS5003;35806;47.958;13.158;2023-02-12T11:49:24;23;20;
49914;PMS5003;35806;47.958;13.158;2023-02-12T11:51:55;34;27;
49914;PMS5003;35806;47.958;13.158;2023-02-12T11:54:27;27;22;
49914;PMS5003;35806;47.958;13.158;2023-02-12T11:57:01;36;29;
49914;PMS5003;35806;47.958;13.158;2023-02-12T11:59:31;24;22;
49914;PMS5003;35806;47.958;13.158;2023-02-12T12:02:02;30;26;
49914;PMS5003;35806;47.958;13.158;2023-02-12T12:04:40;32;30;
49914;PMS5003;35806;47.958;13.158;2023-02-12T12:07:10;25;25;
49914;PMS5003;35806;47.958;13.158;2023-02-12T12:09:46;35;28;
49914;PMS5003;35806;47.958;13.158;2023-02-12T12:12:17;29;24;
49914;PMS5003;35806;47.958;13.158;2023-02-12T12:14:51;30;27;
49914;PMS5003;35806;47.958;13.158;2023-02-12T12:17:22;37;30;
49914;PMS5003;35806;47.958;13.158;2023-02-12T12:20:14;28;27;
49914;PMS5003;35806;47.958;13.158;2023-02-12T12:22:49;28;27;
49914;PMS5003;35806;47.958;13.158;2023-02-12T12:25:23;31;28;
49914;PMS5003;35806;47.958;13.158;2023-02-12T12:27:55;39;35;
49914;PMS5003;35806;47.958;13.158;2023-02-12T12:30:30;35;33;
49914;PMS5003;35806;47.958;13.158;2023-02-12T12:33:21;33;29;
49914;PMS5003;35806;47.958;13.158;2023-02-12T12:36:01;38;32;
49914;PMS5003;35806;47.958;13.158;2023-02-12T12:38:45;31;28;
49914;PMS5003;35806;47.958;13.158;2023-02-12T12:41:23;34;29;
49914;PMS5003;35806;47.958;13.158;2023-02-12T12:43:59;35;30;
49914;PMS5003;35806;47.958;13.158;2023-02-12T12:46:43;25;24;
49914;PMS5003;35806;47.958;13.158;2023-02-12T12:49:31;35;30;
49914;PMS5003;35806;47.958;13.158;2023-02-12T12:52:16;35;29;
49914;PMS5003;35806;47.958;13.158;2023-02-12T12:54:59;28;25;
49914;PMS5003;35806;47.958;13.158;2023-02-12T12:57:42;28;24;
49914;PMS5003;35806;47.958;13.158;2023-02-12T13:00:23;29;27;
49914;PMS5003;35806;47.958;13.158;2023-02-12T13:03:10;31;27;
49914;PMS5003;35806;47.958;13.158;2023-02-12T13:05:57;26;22;
49914;PMS5003;35806;47.958;13.158;2023-02-12T13:08:45;26;20;
49914;PMS5003;35806;47.958;13.158;2023-02-12T13:11:33;23;22;
49914;PMS5003;35806;47.958;13.158;2023-02-12T13:14:12;17;17;
49914;PMS5003;35806;47.958;13.158;2023-02-12T13:16:54;20;18;
49914;PMS5003;35806;47.958;13.158;2023-02-12T13:19:34;16;14;
49914;PMS5003;35806;47.958;13.158;2023-02-12T13:22:09;21;17;
49914;PMS5003;35806;47.958;13.158;2023-02-12T13:24:46;13;12;
49914;PMS5003;35806;47.958;13.158;2023-02-12T13:27:21;20;16;
49914;PMS5003;35806;47.958;13.158;2023-02-12T13:29:53;17;13;
49914;PMS5003;35806;47.958;13.158;2023-02-12T13:32:26;16;14;
49914;PMS5003;35806;47.958;13.158;2023-02-12T13:34:56;16;12;
49914;PMS5003;35806;47.958;13.158;2023-02-12T13:37:30;14;14;
49914;PMS5003;35806;47.958;13.158;2023-02-12T13:40:03;14;14;
49914;PMS5003;35806;47.958;13.158;2023-02-12T13:42:36;15;13;
49914;PMS5003;35806;47.958;13.158;2023-02-12T13:45:14;15;14;
49914;PMS5003;35806;47.958;13.158;2023-02-12T13:47:52;14;12;
49914;PMS5003;35806;47.958;13.158;2023-02-12T13:50:33;12;12;
49914;PMS5003;35806;47.958;13.158;2023-02-12T13:53:11;16;13;
49914;PMS5003;35806;47.958;13.158;2023-02-12T13:55:52;15;15;
49914;PMS5003;35806;47.958;13.158;2023-02-12T13:58:38;15;14;
49914;PMS5003;35806;47.958;13.158;2023-02-12T14:01:12;12;11;
49914;PMS5003;35806;47.958;13.158;2023-02-12T14:04:42;17;15;
49914;PMS5003;35806;47.958;13.158;2023-02-12T14:07:12;12;12;
49914;PMS5003;35806;47.958;13.158;2023-02-12T14:09:41;16;13;
49914;PMS5003;35806;47.958;13.158;2023-02-12T14:12:12;19;18;
49914;PMS5003;35806;47.958;13.158;2023-02-12T14:14:44;19;16;
49914;PMS5003;35806;47.958;13.158;2023-02-12T14:17:48;15;15;
49914;PMS5003;35806;47.958;13.158;2023-02-12T14:20:21;19;16;
49914;PMS5003;35806;47.958;13.158;2023-02-12T14:23:00;13;13;
49914;PMS5003;35806;47.958;13.158;2023-02-12T14:25:47;18;17;
49914;PMS5003;35806;47.958;13.158;2023-02-12T14:28:26;13;13;
49914;PMS5003;35806;47.958;13.158;2023-02-12T14:31:32;14;11;
49914;PMS5003;35806;47.958;13.158;2023-02-12T14:34:37;20;19;
49914;PMS5003;35806;47.958;13.158;2023-02-12T14:37:31;14;11;
49914;PMS5003;35806;47.958;13.158;2023-02-12T14:40:29;14;14;
49914;PMS5003;35806;47.958;13.158;2023-02-12T14:43:03;19;19;
49914;PMS5003;35806;47.958;13.158;2023-02-12T14:45:49;16;15;
49914;PMS5003;35806;47.958;13.158;2023-02-12T14:48:37;16;15;
49914;PMS5003;35806;47.958;13.158;2023-02-12T14:51:13;15;15;
49914;PMS5003;35806;47.958;13.158;2023-02-12T14:53:42;16;15;
49914;PMS5003;35806;47.958;13.158;2023-02-12T14:56:12;15;14;
49914;PMS5003;35806;47.958;13.158;2023-02-12T14:58:45;13;13;
49914;PMS5003;35806;47.958;13.158;2023-02-12T15:01:13;18;17;
49914;PMS5003;35806;47.958;13.158;2023-02-12T15:03:44;17;15;
49914;PMS5003;35806;47.958;13.158;2023-02-12T15:06:15;13;13;
49914;PMS5003;35806;47.958;13.158;2023-02-12T15:08:48;17;16;
49914;PMS5003;35806;47.958;13.158;2023-02-12T15:11:23;24;19;
49914;PMS5003;35806;47.958;13.158;2023-02-12T15:14:00;17;16;
49914;PMS5003;35806;47.958;13.158;2023-02-12T15:16:34;17;16;
49914;PMS5003;35806;47.958;13.158;2023-02-12T15:19:15;15;14;
49914;PMS5003;35806;47.958;13.158;2023-02-12T15:21:50;16;16;
49914;PMS5003;35806;47.958;13.158;2023-02-12T15:24:20;14;14;
49914;PMS5003;35806;47.958;13.158;2023-02-12T15:26:48;15;15;
49914;PMS5003;35806;47.958;13.158;2023-02-12T15:29:19;19;18;
49914;PMS5003;35806;47.958;13.158;2023-02-12T15:31:50;17;16;
49914;PMS5003;35806;47.958;13.158;2023-02-12T15:34:25;20;15;
49914;PMS5003;35806;47.958;13.158;2023-02-12T15:36:57;18;17;
49914;PMS5003;35806;47.958;13.158;2023-02-12T15:39:26;17;16;
49914;PMS5003;35806;47.958;13.158;2023-02-12T15:42:03;17;15;
49914;PMS5003;35806;47.958;13.158;2023-02-12T15:44:31;19;19;
49914;PMS5003;35806;47.958;13.158;2023-02-12T15:47:00;21;20;
49914;PMS5003;35806;47.958;13.158;2023-02-12T15:49:36;29;24;
49914;PMS5003;35806;47.958;13.158;2023-02-12T15:52:06;28;26;
49914;PMS5003;35806;47.958;13.158;2023-02-12T15:54:36;40;34;
49914;PMS5003;35806;47.958;13.158;2023-02-12T15:57:08;31;31;
49914;PMS5003;35806;47.958;13.158;2023-02-12T15:59:37;43;37;
49914;PMS5003;35806;47.958;13.158;2023-02-12T16:02:13;35;31;
49914;PMS5003;35806;47.958;13.158;2023-02-12T16:04:45;41;38;
49914;PMS5003;35806;47.958;13.158;2023-02-12T16:07:13;36;28;
49914;PMS5003;35806;47.958;13.158;2023-02-12T16:09:42;32;28;
49914;PMS5003;35806;47.958;13.158;2023-02-12T16:12:11;40;32;
49914;PMS5003;35806;47.958;13.158;2023-02-12T16:14:42;32;32;
49914;PMS5003;35806;47.958;13.158;2023-02-12T16:17:19;39;38;
49914;PMS5003;35806;47.958;13.158;2023-02-12T16:19:57;39;34;
49914;PMS5003;35806;47.958;13.158;2023-02-12T16:22:27;29;26;
49914;PMS5003;35806;47.958;13.158;2023-02-12T16:24:59;33;30;
49914;PMS5003;35806;47.958;13.158;2023-02-12T16:27:28;33;30;
49914;PMS5003;35806;47.958;13.158;2023-02-12T16:29:58;34;30;
49914;PMS5003;35806;47.958;13.158;2023-02-12T16:32:29;30;28;
49914;PMS5003;35806;47.958;13.158;2023-02-12T16:35:03;35;25;
49914;PMS5003;35806;47.958;13.158;2023-02-12T16:37:41;37;30;
49914;PMS5003;35806;47.958;13.158;2023-02-12T16:40:17;32;28;
49914;PMS5003;35806;47.958;13.158;2023-02-12T16:42:54;28;26;
49914;PMS5003;35806;47.958;13.158;2023-02-12T16:45:38;33;29;
49914;PMS5003;35806;47.958;13.158;2023-02-12T16:48:11;33;31;
49914;PMS5003;35806;47.958;13.158;2023-02-12T16:50:45;26;23;